createdAt,value
2019-03-26T00:03:34.934Z,71.20
2019-03-26T00:06:23.836Z,71.10
2019-03-26T00:09:12.740Z,70.90
2019-03-26T00:12:01.667Z,70.90
2019-03-26T00:14:50.589Z,72.10
2019-03-26T00:17:39.482Z,72.40
2019-03-26T00:26:34.513Z,73.20
2019-03-26T00:29:06.240Z,74.20
2019-03-26T00:31:47.860Z,73.40
2019-03-26T00:34:29.269Z,73.20
2019-03-26T00:37:11.129Z,73.90
2019-03-26T00:39:52.466Z,74.40
2019-03-26T00:42:33.847Z,73.40
2019-03-26T00:45:14.731Z,73.50
2019-03-26T00:47:55.984Z,74.80
2019-03-26T00:50:37.508Z,74.10
2019-03-26T00:53:17.396Z,75.50
2019-03-26T01:01:57.869Z,76.20
2019-03-26T01:08:07.893Z,75.80
2019-03-26T01:16:51.727Z,76.20
2019-03-26T01:22:50.016Z,74.10
2019-03-26T01:25:31.151Z,73.80
2019-03-26T01:28:12.755Z,73.30
2019-03-26T01:30:54.338Z,73.70
2019-03-26T01:33:35.750Z,73.70
2019-03-26T01:36:17.163Z,73.80
2019-03-26T01:38:58.742Z,73.70
2019-03-26T01:41:40.347Z,73.50
2019-03-26T01:44:21.921Z,74.40
2019-03-26T01:47:03.374Z,74.90
2019-03-26T01:49:44.980Z,75.30
2019-03-26T01:52:26.637Z,75.10
2019-03-26T01:55:07.754Z,75.80
2019-03-26T01:57:49.241Z,77.50
2019-03-26T02:00:31.050Z,78.20
2019-03-26T02:03:12.417Z,78.10
2019-03-26T02:05:53.957Z,78.60
2019-03-26T02:08:35.112Z,78.60
2019-03-26T02:11:16.462Z,77.50
2019-03-26T02:13:57.937Z,77.80
2019-03-26T02:16:39.439Z,78.10
2019-03-26T02:19:20.718Z,78.80
2019-03-26T02:22:01.427Z,79.30
2019-03-26T02:24:42.765Z,80.00
2019-03-26T02:27:24.172Z,79.30
2019-03-26T02:30:05.438Z,78.40
2019-03-26T02:32:46.168Z,77.50
2019-03-26T02:35:26.886Z,77.60
2019-03-26T02:38:08.182Z,77.30
2019-03-26T02:40:49.709Z,78.60
2019-03-26T02:43:31.079Z,78.90
2019-03-26T02:46:11.827Z,78.80
2019-03-26T02:48:53.405Z,78.80
2019-03-26T02:51:34.902Z,79.20
2019-03-26T02:54:16.321Z,80.20
2019-03-26T02:56:57.785Z,80.90
2019-03-26T02:59:38.583Z,81.30
2019-03-26T03:02:20.411Z,80.00
2019-03-26T03:05:01.499Z,79.90
2019-03-26T03:07:42.841Z,79.40
2019-03-26T03:10:23.803Z,78.60
2019-03-26T03:13:05.294Z,78.10
2019-03-26T03:15:46.654Z,79.10
2019-03-26T03:18:28.204Z,78.80
2019-03-26T03:21:09.816Z,78.70
2019-03-26T03:23:51.148Z,77.60
2019-03-26T03:26:32.296Z,78.90
2019-03-26T03:29:13.655Z,79.60
2019-03-26T03:31:55.168Z,81.20
2019-03-26T03:34:36.598Z,82.00
2019-03-26T03:37:18.181Z,82.90
2019-03-26T03:39:58.121Z,81.90
2019-03-26T03:42:47.020Z,81.40
2019-03-26T04:01:47.372Z,75.40
2019-03-26T04:10:29.667Z,74.40
2019-03-26T04:19:08.305Z,74.60
2019-03-26T04:25:04.321Z,75.70
2019-03-26T04:27:46.127Z,74.80
2019-03-26T04:30:27.302Z,73.50
2019-03-26T04:33:08.837Z,69.30
2019-03-26T04:35:50.520Z,68.50
2019-03-26T04:38:32.079Z,70.20
2019-03-26T04:41:13.488Z,69.10
2019-03-26T04:43:53.481Z,67.50
2019-03-26T04:52:45.939Z,64.70
2019-03-26T04:58:57.012Z,65.50
2019-03-26T05:01:45.174Z,65.00
2019-03-26T05:07:31.492Z,64.70
2019-03-26T05:13:38.881Z,65.80
2019-03-26T05:16:27.855Z,66.60
2019-03-26T05:25:00.550Z,68.00
2019-03-26T05:27:45.533Z,67.50
2019-03-26T05:30:24.295Z,67.40
2019-03-26T05:33:04.988Z,66.10
2019-03-26T05:35:46.373Z,65.90
2019-03-26T05:38:27.205Z,65.00
2019-03-26T05:41:10.499Z,65.30
2019-03-26T05:43:51.515Z,66.70
2019-03-26T05:46:33.147Z,66.20
2019-03-26T05:49:14.416Z,66.30
2019-03-26T05:51:55.904Z,67.30
2019-03-26T05:54:37.193Z,67.10
2019-03-26T05:57:18.687Z,67.60
2019-03-26T05:59:59.744Z,67.60
2019-03-26T06:02:41.475Z,67.00
2019-03-26T06:05:22.548Z,66.50
2019-03-26T06:08:03.236Z,66.20
2019-03-26T06:10:44.837Z,65.50
2019-03-26T06:13:26.379Z,59.70
2019-03-26T06:16:07.605Z,59.70
2019-03-26T06:18:49.235Z,59.40
2019-03-26T06:21:30.887Z,58.30
2019-03-26T06:24:11.699Z,59.00
2019-03-26T06:26:51.669Z,59.70
2019-03-26T06:32:36.672Z,60.50
2019-03-26T06:35:25.660Z,59.80
2019-03-26T06:38:14.505Z,59.20
2019-03-26T06:41:15.263Z,58.00
2019-03-26T06:47:03.698Z,57.80
2019-03-26T06:58:56.991Z,60.80
2019-03-26T07:05:00.501Z,62.30
2019-03-26T07:13:44.070Z,57.90
2019-03-26T07:16:32.981Z,57.20
2019-03-26T07:19:22.253Z,55.20
2019-03-26T07:25:02.879Z,52.10
2019-03-26T07:27:44.352Z,49.80
2019-03-26T07:30:25.776Z,50.30
2019-03-26T07:33:07.403Z,47.30
2019-03-26T07:35:48.642Z,43.80
2019-03-26T07:38:29.417Z,43.60
2019-03-26T07:41:10.759Z,40.40
2019-03-26T07:43:52.228Z,39.90
2019-03-26T07:46:32.893Z,38.70
2019-03-26T07:49:14.372Z,38.70
2019-03-26T07:51:55.719Z,40.00
2019-03-26T07:54:37.300Z,39.50
2019-03-26T07:57:18.781Z,40.10
2019-03-26T08:00:00.406Z,40.70
2019-03-26T08:02:41.754Z,40.60
2019-03-26T08:05:29.603Z,42.20
2019-03-26T08:08:06.540Z,42.80
2019-03-26T08:10:47.759Z,42.60
2019-03-26T08:13:28.905Z,42.60
2019-03-26T08:16:10.100Z,42.10
2019-03-26T08:18:50.928Z,41.10
2019-03-26T08:21:32.459Z,41.60
2019-03-26T08:24:14.247Z,40.10
2019-03-26T08:26:55.351Z,41.40
2019-03-26T08:29:37.026Z,42.60
2019-03-26T08:32:18.429Z,43.70
2019-03-26T08:35:00.008Z,48.70
2019-03-26T08:37:41.239Z,51.80
2019-03-26T08:40:23.539Z,52.80
2019-03-26T08:43:05.198Z,54.90
2019-03-26T08:45:46.688Z,55.10
2019-03-26T08:48:28.172Z,53.10
2019-03-26T08:51:09.694Z,55.00
2019-03-26T08:53:50.875Z,53.00
2019-03-26T08:56:32.279Z,49.20
2019-03-26T08:59:13.848Z,49.20
2019-03-26T09:01:55.350Z,46.80
2019-03-26T09:04:36.476Z,47.60
2019-03-26T09:07:17.548Z,47.90
2019-03-26T09:09:58.862Z,47.50
2019-03-26T09:12:40.468Z,43.10
2019-03-26T09:15:21.582Z,41.70
2019-03-26T09:18:02.752Z,39.70
2019-03-26T09:20:44.132Z,38.00
2019-03-26T09:23:25.671Z,35.70
2019-03-26T09:26:06.903Z,33.90
2019-03-26T09:28:48.596Z,31.80
2019-03-26T09:31:30.093Z,31.70
2019-03-26T09:34:11.552Z,32.30
2019-03-26T09:36:52.269Z,34.20
2019-03-26T09:39:32.192Z,33.10
2019-03-26T09:42:21.084Z,32.80
2019-03-26T09:48:25.086Z,33.70
2019-03-26T09:54:09.425Z,27.40
2019-03-26T09:56:58.716Z,30.00
2019-03-26T09:59:47.883Z,31.10
2019-03-26T10:05:35.982Z,33.90
2019-03-26T10:08:47.005Z,34.10
2019-03-26T10:11:15.428Z,35.20
2019-03-26T10:20:28.285Z,37.60
2019-03-26T10:23:17.188Z,39.30
2019-03-26T10:25:58.707Z,41.50
2019-03-26T10:28:40.353Z,41.10
2019-03-26T10:31:21.791Z,42.30
2019-03-26T10:34:03.394Z,41.50
2019-03-26T10:36:44.832Z,41.90
2019-03-26T10:39:26.282Z,42.00
2019-03-26T10:42:07.516Z,42.70
2019-03-26T10:44:48.918Z,42.20
2019-03-26T10:47:30.241Z,41.80
2019-03-26T10:50:11.788Z,42.90
2019-03-26T10:52:51.810Z,42.60
2019-03-26T10:55:40.701Z,43.20
2019-03-26T10:58:29.784Z,43.10
2019-03-26T11:01:18.748Z,44.50
2019-03-26T11:04:19.367Z,44.60
2019-03-26T11:07:10.025Z,43.80
2019-03-26T11:13:12.465Z,44.10
2019-03-26T11:15:49.040Z,42.90
2019-03-26T11:24:43.415Z,42.40
2019-03-26T11:27:20.159Z,42.80
2019-03-26T11:33:24.321Z,43.10
2019-03-26T11:36:13.270Z,45.10
2019-03-26T11:47:49.111Z,51.70
2019-03-26T11:50:37.981Z,51.50
2019-03-26T11:56:22.711Z,48.70
2019-03-26T12:08:21.674Z,55.80
2019-03-26T12:17:35.240Z,60.00
2019-03-26T12:20:16.552Z,60.00
2019-03-26T12:22:58.079Z,59.20
2019-03-26T12:25:39.232Z,58.00
2019-03-26T12:28:21.151Z,57.80
2019-03-26T12:31:02.413Z,58.50
2019-03-26T12:33:43.963Z,56.10
2019-03-26T12:36:38.910Z,58.40
2019-03-26T12:39:07.959Z,60.60
2019-03-26T12:41:49.125Z,63.10
2019-03-26T12:44:30.662Z,65.10
2019-03-26T12:47:11.476Z,66.60
2019-03-26T12:49:53.192Z,67.60
2019-03-26T12:52:34.364Z,66.80
2019-03-26T12:55:15.987Z,67.80
2019-03-26T12:57:57.136Z,66.80
2019-03-26T13:00:38.054Z,65.10
2019-03-26T13:03:19.547Z,65.40
2019-03-26T13:06:01.384Z,66.70
2019-03-26T13:08:42.725Z,69.80
2019-03-26T13:11:24.433Z,69.30
2019-03-26T13:14:04.479Z,70.70
2019-03-26T13:17:07.390Z,74.50
2019-03-26T13:19:44.124Z,77.40
2019-03-26T13:25:28.574Z,81.50
2019-03-26T13:28:17.550Z,84.90
2019-03-26T13:39:53.240Z,85.30
2019-03-26T13:42:56.546Z,80.70
2019-03-26T13:45:33.087Z,80.60
2019-03-26T13:54:18.818Z,78.20
2019-03-26T13:57:07.735Z,76.60
2019-03-26T13:59:56.608Z,75.90
2019-03-26T14:05:52.694Z,74.30
2019-03-26T14:08:31.653Z,74.90
2019-03-26T14:17:18.101Z,70.20
2019-03-26T14:19:59.710Z,67.60
2019-03-26T14:22:41.052Z,66.00
2019-03-26T14:25:22.169Z,65.00
2019-03-26T14:28:03.734Z,65.30
2019-03-26T14:30:44.571Z,65.50
2019-03-26T14:33:33.508Z,67.60
2019-03-26T14:39:31.880Z,69.20
2019-03-26T14:42:20.816Z,68.30
2019-03-26T14:45:09.871Z,69.20
2019-03-26T14:48:13.153Z,69.60
2019-03-26T14:51:03.721Z,69.90
2019-03-26T14:53:40.603Z,70.40
2019-03-26T14:56:30.046Z,71.30
2019-03-26T14:59:18.940Z,72.20
2019-03-26T15:05:29.167Z,76.50
2019-03-26T15:08:08.077Z,77.90
2019-03-26T15:10:49.317Z,79.00
2019-03-26T15:13:30.199Z,78.60
2019-03-26T15:16:11.459Z,77.60
2019-03-26T15:18:52.929Z,77.10
2019-03-26T15:21:34.059Z,76.90
2019-03-26T15:24:15.522Z,77.70
2019-03-26T15:26:56.683Z,77.20
2019-03-26T15:29:38.479Z,75.80
2019-03-26T15:32:19.715Z,75.50
2019-03-26T15:35:01.637Z,74.00
2019-03-26T15:37:42.576Z,74.60
2019-03-26T15:40:22.589Z,76.40
2019-03-26T15:43:11.436Z,77.90
2019-03-26T15:48:55.719Z,80.90
2019-03-26T15:54:43.768Z,80.20
2019-03-26T15:57:32.656Z,80.00
2019-03-26T16:03:36.716Z,79.20
2019-03-26T16:06:25.643Z,79.40
2019-03-26T16:09:26.340Z,78.80
2019-03-26T16:11:57.830Z,78.60
2019-03-26T16:14:39.453Z,80.10
2019-03-26T16:17:20.708Z,81.10
2019-03-26T16:20:02.295Z,82.10
2019-03-26T16:22:43.990Z,82.30
2019-03-26T16:25:25.473Z,82.10
2019-03-26T16:30:49.611Z,81.20
2019-03-26T16:33:38.539Z,78.80
2019-03-26T16:36:27.532Z,80.10
2019-03-26T16:39:16.414Z,81.60
2019-03-26T16:45:12.723Z,80.00
2019-03-26T16:47:51.749Z,81.00
2019-03-26T16:50:40.884Z,80.50
2019-03-26T16:53:30.135Z,79.90
2019-03-26T16:59:26.642Z,82.10
2019-03-26T17:11:09.193Z,83.00
2019-03-26T17:13:50.877Z,83.60
2019-03-26T17:16:32.048Z,82.80
2019-03-26T17:19:13.346Z,84.10
2019-03-26T17:21:54.972Z,84.20
2019-03-26T17:24:36.223Z,84.80
2019-03-26T17:27:16.903Z,85.20
2019-03-26T17:29:57.644Z,85.10
2019-03-26T17:32:38.586Z,83.10
2019-03-26T17:35:19.476Z,82.00
2019-03-26T17:38:01.002Z,80.10
2019-03-26T17:40:41.738Z,80.40
2019-03-26T17:43:22.931Z,80.60
2019-03-26T17:46:04.239Z,79.90
2019-03-26T17:48:45.066Z,78.70
2019-03-26T17:51:25.783Z,78.50
2019-03-26T17:54:05.913Z,78.20
2019-03-26T17:56:55.061Z,78.70
2019-03-26T17:59:44.250Z,78.80
2019-03-26T18:05:43.087Z,77.60
2019-03-26T18:14:42.154Z,75.50
2019-03-26T18:17:31.045Z,75.60
2019-03-26T18:20:31.917Z,75.20
2019-03-26T18:29:15.782Z,77.00
2019-03-26T18:31:52.664Z,77.40
2019-03-26T18:37:40.779Z,79.10
2019-03-26T18:40:41.701Z,79.40
2019-03-26T18:43:12.539Z,80.90
2019-03-26T18:45:54.168Z,82.10
2019-03-26T18:48:35.642Z,82.90
2019-03-26T18:51:15.598Z,83.40
2019-03-26T18:57:14.408Z,83.40
2019-03-26T19:00:03.502Z,83.40
2019-03-26T19:03:06.374Z,82.70
2019-03-26T19:05:54.968Z,83.00
2019-03-26T19:08:33.801Z,82.30
2019-03-26T19:17:21.627Z,83.90
2019-03-26T19:20:10.695Z,83.30
2019-03-26T19:23:13.902Z,84.00
2019-03-26T19:37:45.540Z,81.20
2019-03-26T19:40:22.283Z,80.50
2019-03-26T19:43:10.645Z,79.70
2019-03-26T19:45:46.716Z,80.00
2019-03-26T19:48:29.627Z,80.30
2019-03-26T19:51:10.699Z,79.50
2019-03-26T19:53:52.424Z,78.80
2019-03-26T19:56:33.163Z,80.10
2019-03-26T19:59:03.360Z,82.40
2019-03-26T20:05:01.796Z,85.70
2019-03-26T20:10:38.653Z,86.70
2019-03-26T20:19:56.027Z,85.80
2019-03-26T20:34:18.189Z,85.00
2019-03-26T20:37:07.110Z,86.30
2019-03-26T20:42:44.179Z,87.40
2019-03-26T20:45:24.985Z,87.70
2019-03-26T20:48:06.585Z,87.80
2019-03-26T20:50:47.932Z,88.10
2019-03-26T20:53:29.079Z,88.50
2019-03-26T20:56:10.819Z,89.20
2019-03-26T20:58:52.438Z,89.10
2019-03-26T21:01:34.058Z,89.50
2019-03-26T21:04:15.679Z,90.00
2019-03-26T21:06:56.859Z,89.10
2019-03-26T21:09:38.689Z,88.40
2019-03-26T21:12:19.544Z,87.60
2019-03-26T21:14:59.493Z,87.30
2019-03-26T21:17:48.363Z,86.20
2019-03-26T21:20:37.270Z,85.30
2019-03-26T21:29:31.335Z,82.80
2019-03-26T21:32:20.296Z,82.30
2019-03-26T21:38:38.343Z,80.60
2019-03-26T21:44:04.442Z,80.30
2019-03-26T21:46:45.696Z,79.30
2019-03-26T21:49:27.033Z,78.60
2019-03-26T21:52:08.726Z,78.40
2019-03-26T21:54:49.489Z,78.00
2019-03-26T21:57:31.043Z,77.50
2019-03-26T22:00:12.422Z,77.10
2019-03-26T22:02:53.878Z,77.40
2019-03-26T22:05:35.553Z,76.60
2019-03-26T22:08:18.911Z,76.20
2019-03-26T22:11:00.358Z,75.80
2019-03-26T22:13:41.202Z,75.20
2019-03-26T22:16:22.109Z,75.20
2019-03-26T22:19:02.097Z,75.00
2019-03-26T22:21:51.075Z,75.00
2019-03-26T22:33:40.871Z,74.10
2019-03-26T22:39:27.006Z,73.90
2019-03-26T22:42:08.225Z,74.00
2019-03-26T22:44:49.723Z,74.30
2019-03-26T22:47:31.004Z,74.60
2019-03-26T22:50:12.320Z,74.60
2019-03-26T22:52:53.308Z,74.90
2019-03-26T22:55:34.936Z,74.80
2019-03-26T22:58:16.387Z,74.80
2019-03-26T23:00:57.995Z,75.00
2019-03-26T23:03:39.172Z,75.40
2019-03-26T23:06:20.398Z,75.40
2019-03-26T23:09:02.045Z,75.20
2019-03-26T23:11:43.502Z,75.10
2019-03-26T23:14:24.261Z,75.40
2019-03-26T23:17:05.686Z,75.30
2019-03-26T23:19:45.615Z,75.20
2019-03-26T23:25:29.576Z,75.00
2019-03-26T23:28:42.372Z,74.90
2019-03-26T23:31:21.325Z,74.90
2019-03-26T23:34:10.260Z,75.30
2019-03-26T23:46:03.640Z,76.20
2019-03-26T23:48:52.680Z,76.30
